createdAt,value
2022-11-24T00:00:48.851Z,96877.63
2022-11-24T00:03:15.348Z,96876.66
2022-11-24T00:05:41.727Z,96876.63
2022-11-24T00:08:08.087Z,96875.44
2022-11-24T00:10:34.465Z,96869.44
2022-11-24T00:13:01.008Z,96867.38
2022-11-24T00:15:27.360Z,96863.66
2022-11-24T00:17:53.790Z,96864.69
2022-11-24T00:20:20.280Z,96867.78
2022-11-24T00:22:46.656Z,96867.38
2022-11-24T00:25:13.086Z,96869.84
2022-11-24T00:27:39.536Z,96871.50
2022-11-24T00:30:05.901Z,96883.28
2022-11-24T00:32:32.291Z,96892.97
2022-11-24T00:34:58.634Z,96918.94
2022-11-24T00:37:25.008Z,96916.91
2022-11-24T00:39:51.546Z,96929.66
2022-11-24T00:42:18.034Z,96922.44
2022-11-24T00:44:50.515Z,96919.31
2022-11-24T00:47:16.893Z,96923.22
2022-11-24T00:49:43.371Z,96916.84
2022-11-24T00:52:09.788Z,96912.50
2022-11-24T00:54:36.186Z,96900.56
2022-11-24T00:57:02.816Z,96898.25
2022-11-24T00:59:29.258Z,96898.69
2022-11-24T01:01:55.644Z,96909.22
2022-11-24T01:04:22.068Z,96923.06
2022-11-24T01:06:48.443Z,96930.44
2022-11-24T01:09:14.838Z,96938.28
2022-11-24T01:11:41.262Z,96940.34
2022-11-24T01:14:07.711Z,96927.75
2022-11-24T01:16:34.127Z,96921.31
2022-11-24T01:19:00.529Z,96915.13
2022-11-24T01:21:26.946Z,96931.66
2022-11-24T01:23:53.430Z,96937.63
2022-11-24T01:26:22.330Z,96946.84
2022-11-24T01:28:48.706Z,96953.06
2022-11-24T01:31:15.256Z,96951.75
2022-11-24T01:33:41.651Z,96952.56
2022-11-24T01:36:08.076Z,96942.09
2022-11-24T01:38:34.417Z,96947.06
2022-11-24T01:41:00.810Z,96958.81
2022-11-24T01:43:27.303Z,96970.25
2022-11-24T01:45:53.919Z,96963.69
2022-11-24T01:48:23.189Z,96968.28
2022-11-24T01:50:53.632Z,96971.78
2022-11-24T01:53:20.082Z,96971.13
2022-11-24T01:55:46.430Z,96969.94
2022-11-24T01:58:12.821Z,96974.72
2022-11-24T02:00:39.196Z,96970.59
2022-11-24T02:03:05.668Z,96980.31
2022-11-24T02:05:32.118Z,96984.44
2022-11-24T02:07:58.456Z,96979.09
2022-11-24T02:10:24.850Z,96971.47
2022-11-24T02:12:51.217Z,96961.75
2022-11-24T02:15:17.616Z,96956.19
2022-11-24T02:17:44.022Z,96966.25
2022-11-24T02:20:10.475Z,96965.84
2022-11-24T02:22:36.856Z,96966.91
2022-11-24T02:25:03.244Z,96970.84
2022-11-24T02:27:29.648Z,96963.44
2022-11-24T02:29:55.984Z,96962.41
2022-11-24T02:32:22.400Z,96968.53
2022-11-24T02:34:48.768Z,96971.25
2022-11-24T02:37:15.151Z,96965.50
2022-11-24T02:39:41.567Z,96970.88
2022-11-24T02:42:07.904Z,96978.31
2022-11-24T02:44:34.490Z,96988.84
2022-11-24T02:47:01.120Z,96994.19
2022-11-24T02:49:27.547Z,96997.09
2022-11-24T02:51:53.950Z,96989.44
2022-11-24T02:54:20.388Z,96990.91
2022-11-24T02:56:46.796Z,96982.22
2022-11-24T02:59:13.219Z,96996.03
2022-11-24T03:01:39.705Z,96993.34
2022-11-24T03:04:06.114Z,96997.69
2022-11-24T03:06:32.484Z,97006.34
2022-11-24T03:08:59.021Z,97004.06
2022-11-24T03:11:25.450Z,97000.63
2022-11-24T03:13:51.827Z,97000.22
2022-11-24T03:16:18.241Z,96992.38
2022-11-24T03:18:44.665Z,96986.38
2022-11-24T03:21:11.066Z,96972.09
2022-11-24T03:23:39.375Z,96979.09
2022-11-24T03:26:05.937Z,96988.09
2022-11-24T03:28:32.379Z,96983.81
2022-11-24T03:30:58.961Z,96977.84
2022-11-24T03:33:25.471Z,96980.75
2022-11-24T03:35:51.829Z,96987.56
2022-11-24T03:38:18.383Z,96984.88
2022-11-24T03:40:44.746Z,96994.97
2022-11-24T03:43:13.521Z,97005.03
2022-11-24T03:45:47.020Z,97001.59
2022-11-24T03:48:13.534Z,97016.06
2022-11-24T03:50:39.865Z,97015.84
2022-11-24T03:53:06.287Z,97021.66
2022-11-24T03:55:32.623Z,97023.31
2022-11-24T03:57:58.958Z,97020.41
2022-11-24T04:00:25.302Z,97013.56
2022-11-24T04:02:51.708Z,97012.16
2022-11-24T04:05:18.141Z,97020.19
2022-11-24T04:07:44.690Z,97019.59
2022-11-24T04:10:11.122Z,97018.16
2022-11-24T04:12:37.555Z,97018.44
2022-11-24T04:15:03.989Z,97026.53
2022-11-24T04:17:30.342Z,97027.78
2022-11-24T04:19:56.663Z,97034.38
2022-11-24T04:22:23.172Z,97032.50
2022-11-24T04:24:49.588Z,97032.97
2022-11-24T04:27:16.061Z,97023.28
2022-11-24T04:29:42.392Z,97021.00
2022-11-24T04:32:09.042Z,97016.50
2022-11-24T04:34:36.048Z,97020.81
2022-11-24T04:37:02.586Z,97028.28
2022-11-24T04:39:29.300Z,97026.63
2022-11-24T04:41:55.905Z,97024.13
2022-11-24T04:44:22.659Z,97029.66
2022-11-24T04:46:49.317Z,97014.59
2022-11-24T04:49:15.667Z,97006.56
2022-11-24T04:51:42.043Z,97007.81
2022-11-24T04:54:08.405Z,97010.50
2022-11-24T04:56:34.983Z,97036.03
2022-11-24T04:59:06.641Z,97034.41
2022-11-24T05:01:34.622Z,97041.59
2022-11-24T05:04:01.158Z,97040.59
2022-11-24T05:06:27.602Z,97038.72
2022-11-24T05:08:54.001Z,97064.53
2022-11-24T05:11:20.444Z,97068.97
2022-11-24T05:13:46.811Z,97082.56
2022-11-24T05:16:13.424Z,97096.38
2022-11-24T05:18:39.854Z,97101.34
2022-11-24T05:21:06.198Z,97091.88
2022-11-24T05:23:34.780Z,97079.34
2022-11-24T05:26:03.864Z,97073.97
2022-11-24T05:28:30.264Z,97066.94
2022-11-24T05:30:57.699Z,97076.56
2022-11-24T05:33:24.285Z,97082.91
2022-11-24T05:35:50.734Z,97084.59
2022-11-24T05:38:17.291Z,97087.94
2022-11-24T05:40:43.620Z,97104.00
2022-11-24T05:43:09.983Z,97099.47
2022-11-24T05:45:37.733Z,97075.75
2022-11-24T05:48:04.124Z,97083.44
2022-11-24T05:50:30.551Z,97083.44
2022-11-24T05:52:57.280Z,97081.38
2022-11-24T05:55:23.689Z,97074.38
2022-11-24T05:57:50.078Z,97090.91
2022-11-24T06:00:16.457Z,97086.97
2022-11-24T06:02:43.091Z,97076.00
2022-11-24T06:05:09.660Z,97072.72
2022-11-24T06:07:36.198Z,97066.53
2022-11-24T06:10:02.597Z,97066.16
2022-11-24T06:12:29.071Z,97073.78
2022-11-24T06:14:55.502Z,97069.81
2022-11-24T06:17:22.141Z,97070.78
2022-11-24T06:19:48.508Z,97076.34
2022-11-24T06:22:15.036Z,97087.13
2022-11-24T06:24:41.466Z,97094.78
2022-11-24T06:27:07.869Z,97097.84
2022-11-24T06:29:34.262Z,97107.34
2022-11-24T06:32:00.681Z,97108.16
2022-11-24T06:34:27.117Z,97100.69
2022-11-24T06:36:53.520Z,97098.44
2022-11-24T06:39:19.962Z,97091.63
2022-11-24T06:41:47.624Z,97082.94
2022-11-24T06:44:14.046Z,97079.03
2022-11-24T06:46:40.469Z,97073.41
2022-11-24T06:49:06.861Z,97065.56
2022-11-24T06:51:33.349Z,97064.31
2022-11-24T06:53:59.868Z,97076.00
2022-11-24T06:56:26.314Z,97064.66
2022-11-24T06:58:55.449Z,97084.59
2022-11-24T07:01:21.974Z,97084.13
2022-11-24T07:03:48.475Z,97086.66
2022-11-24T07:06:14.837Z,97072.06
2022-11-24T07:08:41.228Z,97083.19
2022-11-24T07:11:07.617Z,97092.75
2022-11-24T07:13:34.255Z,97109.84
2022-11-24T07:16:00.773Z,97110.28
2022-11-24T07:18:27.204Z,97107.63
2022-11-24T07:20:53.624Z,97117.75
2022-11-24T07:23:20.082Z,97118.00
2022-11-24T07:25:46.688Z,97124.41
2022-11-24T07:28:13.026Z,97143.72
2022-11-24T07:30:39.379Z,97152.19
2022-11-24T07:33:05.812Z,97157.34
2022-11-24T07:35:32.226Z,97173.50
2022-11-24T07:37:58.663Z,97172.13
2022-11-24T07:40:27.855Z,97175.69
2022-11-24T07:42:54.303Z,97182.09
2022-11-24T07:45:20.717Z,97179.25
2022-11-24T07:47:48.379Z,97181.19
2022-11-24T07:50:14.809Z,97173.56
2022-11-24T07:52:41.152Z,97174.66
2022-11-24T07:55:07.503Z,97169.50
2022-11-24T07:57:33.955Z,97170.75
2022-11-24T08:00:00.276Z,97182.34
2022-11-24T08:02:26.723Z,97186.25
2022-11-24T08:04:53.118Z,97186.94
2022-11-24T08:07:19.550Z,97176.22
2022-11-24T08:09:45.975Z,97167.81
2022-11-24T08:12:12.307Z,97149.06
2022-11-24T08:14:38.692Z,97141.28
2022-11-24T08:17:05.167Z,97144.56
2022-11-24T08:19:31.641Z,97147.78
2022-11-24T08:21:58.033Z,97151.13
2022-11-24T08:24:24.392Z,97153.28
2022-11-24T08:26:50.697Z,97148.59
2022-11-24T08:29:17.057Z,97138.91
2022-11-24T08:31:43.516Z,97143.94
2022-11-24T08:34:09.921Z,97143.94
2022-11-24T08:36:36.248Z,97134.88
2022-11-24T08:39:02.608Z,97140.84
2022-11-24T08:41:28.982Z,97141.06
2022-11-24T08:43:55.448Z,97148.91
2022-11-24T08:46:22.080Z,97148.09
2022-11-24T08:48:48.464Z,97149.34
2022-11-24T08:51:15.928Z,97154.97
2022-11-24T08:53:42.318Z,97168.38
2022-11-24T08:56:08.753Z,97176.84
2022-11-24T08:58:35.263Z,97186.25
2022-11-24T09:01:01.813Z,97214.16
2022-11-24T09:03:28.239Z,97224.09
2022-11-24T09:05:54.607Z,97234.81
2022-11-24T09:08:23.404Z,97247.00
2022-11-24T09:10:49.902Z,97238.72
2022-11-24T09:13:16.335Z,97225.28
2022-11-24T09:15:42.687Z,97222.41
2022-11-24T09:18:09.085Z,97211.13
2022-11-24T09:20:35.499Z,97214.00
2022-11-24T09:23:01.961Z,97208.84
2022-11-24T09:25:28.291Z,97210.50
2022-11-24T09:27:54.699Z,97205.97
2022-11-24T09:30:21.201Z,97209.72
2022-11-24T09:32:47.659Z,97210.97
2022-11-24T09:35:13.969Z,97198.75
2022-11-24T09:37:40.330Z,97196.94
2022-11-24T09:40:06.688Z,97203.34
2022-11-24T09:42:33.025Z,97201.13
2022-11-24T09:44:59.418Z,97205.47
2022-11-24T09:47:25.780Z,97196.25
2022-11-24T09:49:52.151Z,97206.56
2022-11-24T09:52:18.553Z,97210.28
2022-11-24T09:54:45.064Z,97213.91
2022-11-24T09:57:11.443Z,97220.91
2022-11-24T09:59:37.855Z,97222.19
2022-11-24T10:02:04.316Z,97221.44
2022-11-24T10:04:30.884Z,97226.22
2022-11-24T10:06:57.301Z,97216.50
2022-11-24T10:09:23.692Z,97211.97
2022-11-24T10:11:50.145Z,97213.44
2022-11-24T10:14:16.533Z,97208.72
2022-11-24T10:16:42.956Z,97211.78
2022-11-24T10:19:09.400Z,97213.44
2022-11-24T10:21:35.915Z,97227.06
2022-11-24T10:24:02.316Z,97218.19
2022-11-24T10:26:28.811Z,97220.69
2022-11-24T10:28:55.149Z,97219.44
2022-11-24T10:31:21.631Z,97214.66
2022-11-24T10:33:48.030Z,97195.03
2022-11-24T10:36:14.372Z,97194.84
2022-11-24T10:38:40.783Z,97194.84
2022-11-24T10:41:07.110Z,97208.44
2022-11-24T10:43:33.426Z,97214.22
2022-11-24T10:46:00.261Z,97215.81
2022-11-24T10:48:26.709Z,97215.84
2022-11-24T10:50:53.099Z,97206.56
2022-11-24T10:53:19.467Z,97203.72
2022-11-24T10:55:45.833Z,97194.41
2022-11-24T10:58:12.213Z,97197.97
2022-11-24T11:00:38.614Z,97188.44
2022-11-24T11:03:05.187Z,97183.06
2022-11-24T11:05:31.570Z,97187.63
2022-11-24T11:08:03.950Z,97196.31
2022-11-24T11:10:31.787Z,97199.19
2022-11-24T11:12:58.175Z,97210.56
2022-11-24T11:15:24.525Z,97209.13
2022-11-24T11:17:50.917Z,97213.88
2022-11-24T11:20:17.339Z,97202.31
2022-11-24T11:22:43.704Z,97201.28
2022-11-24T11:25:10.184Z,97210.59
2022-11-24T11:27:36.772Z,97210.00
2022-11-24T11:35:36.011Z,97210.16
2022-11-24T11:38:02.366Z,97209.56
2022-11-24T11:40:28.782Z,97215.16
2022-11-24T11:43:02.394Z,97211.84
2022-11-24T11:45:29.554Z,97207.53
2022-11-24T11:47:55.923Z,97204.44
2022-11-24T11:50:22.317Z,97202.38
2022-11-24T11:52:50.955Z,97194.72
2022-11-24T11:55:21.101Z,97188.53
2022-11-24T11:57:47.529Z,97194.50
2022-11-24T12:00:13.890Z,97198.03
2022-11-24T12:02:40.418Z,97195.78
2022-11-24T12:05:06.905Z,97191.84
2022-11-24T12:07:33.351Z,97189.56
2022-11-24T12:09:59.983Z,97188.13
2022-11-24T12:12:26.470Z,97188.94
2022-11-24T12:14:53.104Z,97185.66
2022-11-24T12:17:19.478Z,97185.25
2022-11-24T12:19:45.951Z,97178.63
2022-11-24T12:22:13.343Z,97171.78
2022-11-24T12:24:39.950Z,97169.91
2022-11-24T12:27:06.352Z,97162.50
2022-11-24T12:29:36.134Z,97171.59
2022-11-24T12:32:02.839Z,97167.03
2022-11-24T12:34:31.625Z,97175.53
2022-11-24T12:36:58.080Z,97169.16
2022-11-24T12:39:24.489Z,97178.63
2022-11-24T12:41:50.968Z,97176.16
2022-11-24T12:44:17.319Z,97177.56
2022-11-24T12:46:43.825Z,97181.75
2022-11-24T12:49:10.661Z,97180.72
2022-11-24T12:51:37.184Z,97171.00
2022-11-24T12:54:03.681Z,97174.28
2022-11-24T12:56:30.207Z,97165.78
2022-11-24T12:58:56.651Z,97157.09
2022-11-24T13:01:23.102Z,97153.97
2022-11-24T13:03:49.477Z,97140.53
2022-11-24T13:06:15.993Z,97129.41
2022-11-24T13:08:42.432Z,97119.47
2022-11-24T13:11:08.853Z,97115.34
2022-11-24T13:13:35.284Z,97117.19
2022-11-24T13:18:48.082Z,97098.38
2022-11-24T13:21:14.535Z,97108.50
2022-11-24T13:23:43.730Z,97104.56
2022-11-24T13:26:10.215Z,97104.75
2022-11-24T13:29:00.101Z,97107.44
2022-11-24T13:31:23.276Z,97107.44
2022-11-24T13:33:49.708Z,97103.75
2022-11-24T13:36:16.100Z,97104.56
2022-11-24T13:38:42.425Z,97108.06
2022-11-24T13:41:28.301Z,97094.19
2022-11-24T13:44:00.901Z,97088.22
2022-11-24T13:49:18.701Z,97070.84
2022-11-24T13:51:45.262Z,97069.38
2022-11-24T13:54:11.900Z,97062.97
2022-11-24T13:56:38.354Z,97055.94
2022-11-24T13:59:10.865Z,97053.06
2022-11-24T14:01:38.680Z,97044.16
2022-11-24T14:06:48.594Z,97039.13
2022-11-24T14:09:15.127Z,97030.41
2022-11-24T14:11:41.587Z,97039.53
2022-11-24T14:14:19.376Z,97039.94
2022-11-24T14:16:47.267Z,97034.19
2022-11-24T14:19:13.768Z,97031.44
2022-11-24T14:21:40.352Z,97030.41
2022-11-24T14:26:47.174Z,97016.75
2022-11-24T14:29:13.682Z,97015.50
2022-11-24T14:31:40.186Z,97016.31
2022-11-24T14:34:06.637Z,97018.78
2022-11-24T14:36:35.875Z,97024.00
2022-11-24T14:39:02.298Z,97025.63
2022-11-24T14:41:28.757Z,97014.66
2022-11-24T14:43:55.265Z,97003.06
2022-11-24T14:46:22.774Z,97010.09
2022-11-24T14:48:49.337Z,97009.03
2022-11-24T14:51:15.827Z,97010.09
2022-11-24T14:53:42.276Z,97011.34
2022-11-24T14:56:08.786Z,96999.16
2022-11-24T14:58:40.509Z,96997.50
2022-11-24T15:01:09.635Z,96996.47
2022-11-24T15:03:36.149Z,96995.44
2022-11-24T15:06:02.680Z,97005.56
2022-11-24T15:08:29.060Z,96992.94
2022-11-24T15:10:55.531Z,96981.56
2022-11-24T15:13:21.971Z,96978.28
2022-11-24T15:15:48.602Z,96980.97
2022-11-24T15:18:15.110Z,96974.13
2022-11-24T15:20:41.623Z,96974.94
2022-11-24T15:23:08.115Z,96980.16
2022-11-24T15:25:34.720Z,96983.88
2022-11-24T15:28:01.145Z,96985.13
2022-11-24T15:30:27.592Z,96996.97
2022-11-24T15:32:54.024Z,97004.81
2022-11-24T15:35:20.665Z,97020.16
2022-11-24T15:37:47.121Z,97019.09
2022-11-24T15:40:13.593Z,97017.25
2022-11-24T15:42:40.096Z,97022.03
2022-11-24T15:45:06.567Z,97014.38
2022-11-24T15:47:33.023Z,97018.53
2022-11-24T15:50:03.409Z,97023.91
2022-11-24T15:52:29.886Z,97019.53
2022-11-24T15:54:56.425Z,97025.13
2022-11-24T15:57:22.885Z,97022.88
2022-11-24T15:59:49.540Z,97038.38
2022-11-24T16:02:18.813Z,97041.47
2022-11-24T16:04:45.268Z,97045.03
2022-11-24T16:07:11.875Z,97035.94
2022-11-24T16:09:38.582Z,97047.72
2022-11-24T16:12:05.120Z,97047.91
2022-11-24T16:14:31.618Z,97043.56
2022-11-24T16:16:59.464Z,97030.56
2022-11-24T16:19:25.937Z,97031.63
2022-11-24T16:21:52.475Z,97034.47
2022-11-24T16:24:19.066Z,97042.97
2022-11-24T16:26:45.573Z,97046.91
2022-11-24T16:29:12.087Z,97045.84
2022-11-24T16:31:38.584Z,97051.88
2022-11-24T16:34:05.147Z,97046.50
2022-11-24T16:36:31.597Z,97039.66
2022-11-24T16:38:58.076Z,97036.78
2022-11-24T16:41:24.647Z,97033.28
2022-11-24T16:43:51.010Z,97032.41
2022-11-24T16:48:57.786Z,97033.88
2022-11-24T16:51:27.691Z,97036.38
2022-11-24T16:53:56.838Z,97034.50
2022-11-24T16:56:23.272Z,97032.63
2022-11-24T16:58:49.718Z,97021.06
2022-11-24T17:01:16.293Z,97018.59
2022-11-24T17:03:42.723Z,97018.59
2022-11-24T17:06:09.087Z,97014.66
2022-11-24T17:08:35.711Z,97009.50
2022-11-24T17:11:02.134Z,97009.94
2022-11-24T17:13:31.484Z,97008.69
2022-11-24T17:15:57.895Z,97001.03
2022-11-24T17:18:25.479Z,97001.84
2022-11-24T17:20:52.046Z,97001.66
2022-11-24T17:23:18.506Z,97005.78
2022-11-24T17:25:44.956Z,97010.97
2022-11-24T17:28:11.406Z,97010.34
2022-11-24T17:30:37.873Z,97001.44
2022-11-24T17:33:04.243Z,96999.38
2022-11-24T17:35:30.673Z,96992.34
2022-11-24T17:37:57.176Z,96994.84
2022-11-24T17:40:30.953Z,96991.31
2022-11-24T17:42:57.528Z,96981.00
2022-11-24T17:45:24.010Z,96995.47
2022-11-24T17:47:54.887Z,96995.66
2022-11-24T17:50:25.640Z,96995.88
2022-11-24T17:52:55.047Z,97007.22
2022-11-24T17:55:21.454Z,96998.97
2022-11-24T17:57:47.888Z,96997.94
2022-11-24T18:00:14.315Z,96995.25
2022-11-24T18:02:40.915Z,96992.97
2022-11-24T18:05:07.322Z,97001.25
2022-11-24T18:07:33.726Z,97007.22
2022-11-24T18:10:00.158Z,97011.56
2022-11-24T18:12:26.589Z,97010.75
2022-11-24T18:14:52.972Z,97011.78
2022-11-24T18:17:19.414Z,97016.13
2022-11-24T18:19:45.848Z,97021.72
2022-11-24T18:22:12.332Z,97014.06
2022-11-24T18:24:39.752Z,97016.53
2022-11-24T18:27:06.289Z,97015.28
2022-11-24T18:29:32.724Z,97017.16
2022-11-24T18:32:02.028Z,97012.41
2022-11-24T18:34:28.477Z,97016.13
2022-11-24T18:36:54.954Z,97015.31
2022-11-24T18:39:21.416Z,97016.97
2022-11-24T18:41:47.831Z,97022.34
2022-11-24T18:44:14.228Z,97024.38
2022-11-24T18:46:40.755Z,97028.53
2022-11-24T18:49:07.547Z,97032.88
2022-11-24T18:51:34.686Z,97036.97
2022-11-24T18:54:01.151Z,97025.22
2022-11-24T18:56:31.725Z,97034.28
2022-11-24T18:58:58.222Z,97026.66
2022-11-24T19:01:24.877Z,97022.34
2022-11-24T19:03:56.151Z,97029.16
2022-11-24T19:06:23.602Z,97028.72
2022-11-24T19:08:50.035Z,97032.25
2022-11-24T19:11:16.586Z,97025.22
2022-11-24T19:13:43.002Z,97021.09
2022-11-24T19:16:09.427Z,97020.25
2022-11-24T19:18:35.938Z,97014.47
2022-11-24T19:21:02.386Z,97016.53
2022-11-24T19:23:28.872Z,97016.53
2022-11-24T19:25:55.374Z,97001.84
2022-11-24T19:28:21.820Z,96998.34
2022-11-24T19:30:48.244Z,96996.69
2022-11-24T19:33:14.679Z,96995.88
2022-11-24T19:35:41.142Z,96997.53
2022-11-24T19:38:08.767Z,96993.63
2022-11-24T19:40:36.723Z,96993.41
2022-11-24T19:43:03.179Z,96999.59
2022-11-24T19:45:29.649Z,96994.22
2022-11-24T19:47:56.136Z,96989.88
2022-11-24T19:50:22.857Z,96985.34
2022-11-24T19:52:49.289Z,96981.59
2022-11-24T19:55:15.687Z,96983.91
2022-11-24T19:57:43.133Z,96990.09
2022-11-24T20:00:09.576Z,96980.38
2022-11-24T20:02:36.270Z,96981.22
2022-11-24T20:05:02.743Z,96983.06
2022-11-24T20:07:29.271Z,96985.94
2022-11-24T20:09:55.693Z,96988.41
2022-11-24T20:12:24.010Z,96990.09
2022-11-24T20:14:50.436Z,96986.97
2022-11-24T20:17:19.888Z,96984.94
2022-11-24T20:19:46.453Z,96986.59
2022-11-24T20:22:12.960Z,96979.75
2022-11-24T20:24:39.341Z,96978.91
2022-11-24T20:27:05.790Z,96982.44
2022-11-24T20:29:32.237Z,96975.22
2022-11-24T20:31:58.893Z,96987.19
2022-11-24T20:34:27.461Z,96986.38
2022-11-24T20:36:54.365Z,96990.50
2022-11-24T20:39:20.915Z,96999.19
2022-11-24T20:41:47.278Z,96998.97
2022-11-24T20:44:13.712Z,97007.88
2022-11-24T20:46:40.164Z,97020.66
2022-11-24T20:51:47.101Z,97017.97
2022-11-24T20:54:13.610Z,97028.91
2022-11-24T20:56:40.229Z,97026.88
2022-11-24T20:59:09.509Z,97019.84
2022-11-24T21:01:36.123Z,97016.53
2022-11-24T21:04:05.415Z,97011.56
2022-11-24T21:06:31.936Z,97005.38
2022-11-24T21:09:03.469Z,97008.06
2022-11-24T21:11:30.977Z,97007.22
2022-11-24T21:13:57.606Z,97008.88
2022-11-24T21:16:24.025Z,97023.31
2022-11-24T21:18:52.793Z,97026.44
2022-11-24T21:21:19.251Z,97034.72
2022-11-24T21:23:45.701Z,97035.09
2022-11-24T21:26:16.519Z,97039.47
2022-11-24T21:28:43.668Z,97044.22
2022-11-24T21:31:10.151Z,97046.88
2022-11-24T21:36:27.471Z,97046.28
2022-11-24T21:38:53.972Z,97039.66
2022-11-24T21:41:23.584Z,97024.38
2022-11-24T21:43:50.147Z,97019.00
2022-11-24T21:46:16.649Z,97025.00
2022-11-24T21:48:43.108Z,97031.00
2022-11-24T21:51:09.544Z,97027.25
2022-11-24T21:53:36.038Z,97035.13
2022-11-24T21:56:02.443Z,97036.38
2022-11-24T21:58:28.887Z,97042.75
2022-11-24T22:00:55.319Z,97054.31
2022-11-24T22:03:21.812Z,97062.81
2022-11-24T22:05:48.234Z,97059.28
2022-11-24T22:08:14.637Z,97052.28
2022-11-24T22:10:41.114Z,97068.78
2022-11-24T22:13:07.507Z,97091.72
2022-11-24T22:15:33.983Z,97108.22
2022-11-24T22:18:00.464Z,97102.25
2022-11-24T22:20:26.893Z,97106.81
2022-11-24T22:22:53.314Z,97117.38
2022-11-24T22:25:19.779Z,97112.81
2022-11-24T22:27:46.225Z,97116.50
2022-11-24T22:30:13.176Z,97121.25
2022-11-24T22:32:39.809Z,97123.56
2022-11-24T22:35:06.297Z,97128.72
2022-11-24T22:37:38.880Z,97131.00
2022-11-24T22:40:05.466Z,97127.09
2022-11-24T22:42:32.668Z,97128.91
2022-11-24T22:44:59.113Z,97128.72
2022-11-24T22:47:25.603Z,97131.84
2022-11-24T22:49:52.010Z,97126.47
2022-11-24T22:52:18.454Z,97121.09
2022-11-24T22:54:44.864Z,97122.53
2022-11-24T22:57:11.308Z,97136.78
2022-11-24T22:59:37.834Z,97136.78
2022-11-24T23:02:04.234Z,97128.50
2022-11-24T23:04:30.705Z,97117.97
2022-11-24T23:07:00.154Z,97131.19
2022-11-24T23:09:36.738Z,97136.97
2022-11-24T23:12:03.150Z,97132.84
2022-11-24T23:14:29.601Z,97131.84
2022-11-24T23:16:57.270Z,97137.81
2022-11-24T23:19:23.730Z,97152.09
2022-11-24T23:22:02.414Z,97166.91
2022-11-24T23:24:39.354Z,97163.03
2022-11-24T23:27:08.221Z,97151.69
2022-11-24T23:29:34.740Z,97154.56
2022-11-24T23:32:01.162Z,97143.41
2022-11-24T23:34:27.617Z,97149.84
2022-11-24T23:36:54.026Z,97145.06
2022-11-24T23:39:23.231Z,97159.34
2022-11-24T23:41:49.858Z,97174.63
2022-11-24T23:44:16.369Z,97161.19
2022-11-24T23:46:42.893Z,97145.91
2022-11-24T23:49:09.297Z,97143.00
2022-11-24T23:51:35.659Z,97144.03
2022-11-24T23:54:02.189Z,97143.41
2022-11-24T23:56:28.617Z,97143.63
2022-11-24T23:58:55.076Z,97136.34
